Wetterdaten: Woche 11.09.17 - 17.09.17 (KW37)
Datum Zeit Temp. A. Feuchte A. Luftdruck Regen Wind Richtung Taupunkt Windchill Windben
11.09.2017 00:00 6,1 C 94 % 1006,0 hPa 0,0 l/m 0,0 km/h (0 Bft) O-NO 5,1 C 6,1 C 0,0 km/h (0 Bft)
11.09.2017 01:00 5,4 C 94 % 1005,5 hPa 0,0 l/m 0,0 km/h (0 Bft) O-NO 4,6 C 5,4 C 0,0 km/h (0 Bft)
11.09.2017 02:00 5,4 C 95 % 1004,8 hPa 0,0 l/m 0,0 km/h (0 Bft) O-NO 4,7 C 5,4 C 0,5 km/h (0 Bft)
11.09.2017 03:00 6,6 C 93 % 1004,5 hPa 0,0 l/m 2,2 km/h (1 Bft) NO 5,5 C 6,6 C 6,3 km/h (2 Bft)
11.09.2017 04:00 7,3 C 90 % 1004,2 hPa 0,0 l/m 1,6 km/h (1 Bft) NO 5,8 C 7,3 C 4,7 km/h (1 Bft)
11.09.2017 05:00 7,0 C 92 % 1003,5 hPa 0,0 l/m 0,9 km/h (0 Bft) O-NO 5,7 C 7,0 C 4,0 km/h (1 Bft)
11.09.2017 06:00 7,3 C 90 % 1002,8 hPa 0,0 l/m 2,8 km/h (1 Bft) O 5,8 C 7,3 C 7,9 km/h (2 Bft)
11.09.2017 07:00 7,7 C 91 % 1002,5 hPa 0,0 l/m 3,3 km/h (1 Bft) N-NO 6,3 C 7,7 C 8,3 km/h (2 Bft)
11.09.2017 08:00 9,4 C 89 % 1002,4 hPa 0,0 l/m 1,6 km/h (1 Bft) O-NO 7,7 C 9,4 C 5,2 km/h (1 Bft)
11.09.2017 09:00 11,3 C 85 % 1002,5 hPa 0,0 l/m 2,6 km/h (1 Bft) O-NO 8,9 C 11,3 C 7,4 km/h (2 Bft)
11.09.2017 10:00 11,6 C 90 % 1002,6 hPa 0,0 l/m 5,1 km/h (1 Bft) N-NO 10,0 C 11,5 C 14,9 km/h (3 Bft)
11.09.2017 11:00 13,2 C 82 % 1002,4 hPa 0,0 l/m 7,4 km/h (2 Bft) O-NO 10,2 C 12,4 C 16,2 km/h (3 Bft)
11.09.2017 12:00 13,6 C 80 % 1002,5 hPa 0,0 l/m 6,2 km/h (2 Bft) O-NO 10,2 C 13,2 C 14,9 km/h (3 Bft)
11.09.2017 13:00 13,6 C 81 % 1003,3 hPa 2,8 l/m 8,6 km/h (2 Bft) O-NO 10,3 C 12,3 C 20,5 km/h (4 Bft)
11.09.2017 14:00 11,5 C 91 % 1004,2 hPa 1,8 l/m 3,8 km/h (1 Bft) O 10,1 C 11,5 C 10,6 km/h (2 Bft)
11.09.2017 15:00 12,4 C 90 % 1004,2 hPa 0,0 l/m 4,4 km/h (1 Bft) O-NO 10,8 C 12,4 C 11,1 km/h (2 Bft)
11.09.2017 16:00 12,8 C 84 % 1004,2 hPa 0,0 l/m 5,3 km/h (1 Bft) O-NO 10,1 C 12,8 C 12,5 km/h (2 Bft)
11.09.2017 17:00 12,4 C 81 % 1004,5 hPa 0,0 l/m 4,5 km/h (1 Bft) O-NO 9,2 C 12,4 C 11,0 km/h (2 Bft)
11.09.2017 18:00 11,7 C 85 % 1004,9 hPa 0,0 l/m 3,9 km/h (1 Bft) NO 9,3 C 11,7 C 10,3 km/h (2 Bft)
11.09.2017 19:00 10,9 C 88 % 1005,4 hPa 0,0 l/m 0,4 km/h (0 Bft) S-SO 9,0 C 10,9 C 1,5 km/h (1 Bft)
11.09.2017 20:00 9,8 C 92 % 1006,3 hPa 0,0 l/m 0,1 km/h (0 Bft) S-SO 8,6 C 9,8 C 1,1 km/h (0 Bft)
11.09.2017 21:00 8,8 C 94 % 1006,7 hPa 0,0 l/m 0,0 km/h (0 Bft) S-SO 7,9 C 8,8 C 0,4 km/h (0 Bft)
11.09.2017 22:00 7,9 C 95 % 1007,1 hPa 0,0 l/m 0,0 km/h (0 Bft) S-SO 7,1 C 7,9 C 0,7 km/h (0 Bft)
11.09.2017 23:00 8,0 C 95 % 1007,2 hPa 0,0 l/m 0,0 km/h (0 Bft) N 7,3 C 8,0 C 0,6 km/h (0 Bft)
12.09.2017 00:00 8,6 C 94 % 1007,3 hPa 1,0 l/m 0,7 km/h (0 Bft) N 7,7 C 8,6 C 3,2 km/h (1 Bft)
12.09.2017 01:00 9,1 C 93 % 1007,1 hPa 0,5 l/m 0,8 km/h (0 Bft) S-SO 8,1 C 9,1 C 4,0 km/h (1 Bft)
12.09.2017 02:00 9,0 C 93 % 1006,7 hPa 0,0 l/m 0,5 km/h (0 Bft) O-NO 7,9 C 9,0 C 2,8 km/h (1 Bft)
12.09.2017 03:00 8,4 C 95 % 1006,7 hPa 0,0 l/m 0,1 km/h (0 Bft) O 7,6 C 8,4 C 1,6 km/h (1 Bft)
12.09.2017 04:00 8,9 C 94 % 1006,7 hPa 0,0 l/m 1,3 km/h (1 Bft) O-NO 8,0 C 8,9 C 4,3 km/h (1 Bft)
12.09.2017 05:00 9,3 C 93 % 1006,9 hPa 0,0 l/m 2,2 km/h (1 Bft) O-NO 8,2 C 9,3 C 6,7 km/h (2 Bft)
12.09.2017 06:00 9,2 C 93 % 1007,2 hPa 0,0 l/m 1,9 km/h (1 Bft) O-NO 8,1 C 9,2 C 6,3 km/h (2 Bft)
12.09.2017 07:00 9,2 C 94 % 1007,6 hPa 0,8 l/m 4,8 km/h (1 Bft) O-NO 8,2 C 9,2 C 11,7 km/h (2 Bft)
12.09.2017 08:00 9,2 C 95 % 1008,0 hPa 0,8 l/m 4,8 km/h (1 Bft) NO 8,5 C 9,2 C 12,6 km/h (3 Bft)
12.09.2017 09:00 9,6 C 95 % 1008,6 hPa 1,8 l/m 5,0 km/h (1 Bft) O-NO 8,9 C 9,5 C 14,0 km/h (3 Bft)
12.09.2017 10:00 10,4 C 94 % 1009,4 hPa 0,3 l/m 4,0 km/h (1 Bft) O-NO 9,5 C 10,4 C 11,5 km/h (2 Bft)
12.09.2017 11:00 11,7 C 88 % 1010,0 hPa 0,0 l/m 5,3 km/h (1 Bft) NO 9,8 C 11,6 C 12,6 km/h (3 Bft)
12.09.2017 12:00 11,8 C 86 % 1010,2 hPa 0,0 l/m 5,5 km/h (2 Bft) O-NO 9,6 C 11,7 C 11,3 km/h (2 Bft)
12.09.2017 13:00 13,2 C 81 % 1010,7 hPa 0,0 l/m 7,3 km/h (2 Bft) NO 10,0 C 12,5 C 17,4 km/h (3 Bft)
12.09.2017 14:00 12,5 C 85 % 1011,2 hPa 2,8 l/m 5,3 km/h (1 Bft) O 10,0 C 12,2 C 13,8 km/h (3 Bft)
12.09.2017 15:00 10,9 C 91 % 1011,7 hPa 4,1 l/m 3,9 km/h (1 Bft) O-NO 9,5 C 10,9 C 9,5 km/h (2 Bft)
12.09.2017 16:00 11,8 C 89 % 1012,2 hPa 2,5 l/m 2,3 km/h (1 Bft) O-NO 10,1 C 11,8 C 6,3 km/h (2 Bft)
12.09.2017 17:00 12,2 C 90 % 1012,6 hPa 0,3 l/m 3,6 km/h (1 Bft) O-NO 10,6 C 12,2 C 9,3 km/h (2 Bft)
12.09.2017 18:00 11,8 C 88 % 1013,2 hPa 0,0 l/m 2,3 km/h (1 Bft) O-NO 9,9 C 11,8 C 8,0 km/h (2 Bft)
12.09.2017 19:00 10,1 C 91 % 1013,6 hPa 0,0 l/m 1,1 km/h (1 Bft) NO 8,6 C 10,1 C 3,9 km/h (1 Bft)
12.09.2017 20:00 9,0 C 93 % 1014,3 hPa 0,0 l/m 1,3 km/h (1 Bft) O 7,9 C 9,0 C 5,3 km/h (1 Bft)
12.09.2017 21:00 8,5 C 94 % 1015,3 hPa 0,0 l/m 0,1 km/h (0 Bft) O 7,6 C 8,5 C 1,1 km/h (0 Bft)
12.09.2017 22:00 8,9 C 95 % 1015,5 hPa 0,0 l/m 1,9 km/h (1 Bft) O 8,1 C 8,9 C 6,6 km/h (2 Bft)
12.09.2017 23:00 8,5 C 92 % 1015,4 hPa 0,0 l/m 1,1 km/h (0 Bft) O-NO 7,2 C 8,5 C 3,0 km/h (1 Bft)
13.09.2017 00:00 7,3 C 94 % 1015,4 hPa 0,0 l/m 0,1 km/h (0 Bft) O-NO 6,4 C 7,3 C 0,8 km/h (0 Bft)
13.09.2017 01:00 6,8 C 96 % 1015,0 hPa 0,0 l/m 0,1 km/h (0 Bft) O-NO 6,2 C 6,8 C 1,2 km/h (1 Bft)
13.09.2017 02:00 6,8 C 96 % 1014,5 hPa 0,0 l/m 0,1 km/h (0 Bft) O-SO 6,2 C 6,8 C 0,7 km/h (0 Bft)
13.09.2017 03:00 7,0 C 94 % 1013,7 hPa 0,0 l/m 1,1 km/h (1 Bft) O-NO 6,1 C 7,0 C 4,8 km/h (1 Bft)
13.09.2017 04:00 7,5 C 91 % 1012,8 hPa 0,0 l/m 4,3 km/h (1 Bft) O-NO 6,2 C 7,3 C 11,7 km/h (2 Bft)
13.09.2017 05:00 10,2 C 81 % 1011,6 hPa 0,0 l/m 6,4 km/h (2 Bft) O-NO 7,1 C 9,8 C 16,2 km/h (3 Bft)
13.09.2017 06:00 10,4 C 80 % 1011,0 hPa 0,0 l/m 3,6 km/h (1 Bft) NO 7,1 C 10,4 C 10,1 km/h (2 Bft)
13.09.2017 07:00 11,5 C 76 % 1010,4 hPa 0,0 l/m 6,1 km/h (2 Bft) O 7,5 C 11,3 C 16,1 km/h (3 Bft)
13.09.2017 08:00 12,1 C 74 % 1010,1 hPa 0,0 l/m 12,2 km/h (2 Bft) NO 7,6 C 8,8 C 29,8 km/h (5 Bft)
13.09.2017 09:00 12,6 C 73 % 1009,9 hPa 0,3 l/m 11,0 km/h (2 Bft) NO 7,9 C 10,0 C 29,6 km/h (5 Bft)
13.09.2017 10:00 13,3 C 74 % 1010,3 hPa 0,0 l/m 11,0 km/h (2 Bft) O-NO 8,7 C 10,9 C 26,1 km/h (4 Bft)
13.09.2017 11:00 14,3 C 76 % 1009,8 hPa 0,0 l/m 13,2 km/h (3 Bft) O-NO 10,2 C 11,0 C 27,5 km/h (5 Bft)
13.09.2017 12:00 15,3 C 76 % 1009,6 hPa 0,0 l/m 12,7 km/h (3 Bft) O-NO 11,1 C 12,5 C 24,2 km/h (4 Bft)
13.09.2017 13:00 15,5 C 78 % 1009,7 hPa 0,3 l/m 13,2 km/h (3 Bft) O-NO 11,7 C 12,5 C 24,3 km/h (4 Bft)
13.09.2017 14:00 15,5 C 82 % 1009,8 hPa 0,0 l/m 12,2 km/h (2 Bft) O-NO 12,5 C 12,8 C 31,7 km/h (5 Bft)
13.09.2017 15:00 15,7 C 83 % 1010,0 hPa 0,0 l/m 11,3 km/h (2 Bft) O-NO 12,8 C 13,4 C 27,3 km/h (5 Bft)
13.09.2017 16:00 15,7 C 86 % 1009,5 hPa 1,3 l/m 11,6 km/h (2 Bft) O-NO 13,4 C 13,3 C 26,8 km/h (4 Bft)
13.09.2017 17:00 15,1 C 92 % 1008,9 hPa 1,5 l/m 10,7 km/h (2 Bft) NO 13,8 C 12,9 C 26,9 km/h (4 Bft)
13.09.2017 18:00 15,6 C 90 % 1008,1 hPa 1,3 l/m 9,3 km/h (2 Bft) O-NO 14,0 C 14,1 C 24,3 km/h (4 Bft)
13.09.2017 19:00 16,7 C 85 % 1007,5 hPa 0,0 l/m 10,6 km/h (2 Bft) NO 14,0 C 14,8 C 28,6 km/h (5 Bft)
13.09.2017 20:00 18,0 C 77 % 1007,1 hPa 0,0 l/m 12,3 km/h (2 Bft) O 13,8 C 15,6 C 29,5 km/h (5 Bft)
13.09.2017 21:00 18,4 C 74 % 1006,9 hPa 0,0 l/m 13,5 km/h (3 Bft) O-NO 13,6 C 15,8 C 30,7 km/h (5 Bft)
13.09.2017 22:00 18,7 C 72 % 1006,5 hPa 0,0 l/m 14,9 km/h (3 Bft) O-NO 13,4 C 15,7 C 31,7 km/h (5 Bft)
13.09.2017 23:00 18,8 C 70 % 1006,0 hPa 0,3 l/m 15,5 km/h (3 Bft) O-NO 13,2 C 15,7 C 34,1 km/h (5 Bft)
14.09.2017 00:00 18,8 C 70 % 1005,8 hPa 0,0 l/m 15,0 km/h (3 Bft) O-NO 13,1 C 15,8 C 33,6 km/h (5 Bft)
14.09.2017 01:00 18,6 C 69 % 1005,0 hPa 0,0 l/m 15,8 km/h (3 Bft) O 12,9 C 15,4 C 38,1 km/h (6 Bft)
14.09.2017 02:00 18,4 C 69 % 1004,4 hPa 0,0 l/m 17,5 km/h (3 Bft) O-NO 12,7 C 14,8 C 32,4 km/h (5 Bft)
14.09.2017 03:00 18,3 C 70 % 1003,8 hPa 0,0 l/m 14,6 km/h (3 Bft) O-NO 12,7 C 15,4 C 26,3 km/h (4 Bft)
14.09.2017 04:00 18,2 C 69 % 1003,5 hPa 0,0 l/m 14,2 km/h (3 Bft) O-NO 12,3 C 15,4 C 25,3 km/h (4 Bft)
14.09.2017 05:00 17,9 C 68 % 1002,8 hPa 0,0 l/m 13,2 km/h (3 Bft) O-NO 11,9 C 15,4 C 24,5 km/h (4 Bft)
14.09.2017 06:00 17,9 C 67 % 1002,1 hPa 0,0 l/m 13,7 km/h (3 Bft) O-NO 11,6 C 15,2 C 25,8 km/h (4 Bft)
14.09.2017 07:00 17,5 C 68 % 1001,9 hPa 1,0 l/m 12,7 km/h (3 Bft) NO 11,5 C 15,1 C 24,4 km/h (4 Bft)
14.09.2017 08:00 11,2 C 90 % 1004,5 hPa 4,1 l/m 4,3 km/h (1 Bft) O-NO 9,5 C 11,2 C 13,0 km/h (3 Bft)
14.09.2017 09:00 9,3 C 91 % 1006,1 hPa 2,5 l/m 5,3 km/h (1 Bft) O 8,0 C 9,2 C 15,7 km/h (3 Bft)
14.09.2017 10:00 8,6 C 92 % 1006,9 hPa 2,3 l/m 6,2 km/h (2 Bft) O-NO 7,4 C 8,2 C 18,5 km/h (3 Bft)
14.09.2017 11:00 8,1 C 91 % 1007,5 hPa 1,3 l/m 8,6 km/h (2 Bft) O-NO 6,8 C 6,5 C 20,2 km/h (4 Bft)
14.09.2017 12:00 8,0 C 92 % 1008,1 hPa 2,3 l/m 8,5 km/h (2 Bft) O-NO 6,8 C 6,3 C 18,8 km/h (3 Bft)
14.09.2017 13:00 7,6 C 93 % 1009,6 hPa 2,5 l/m 8,2 km/h (2 Bft) O-NO 6,6 C 6,1 C 19,4 km/h (3 Bft)
14.09.2017 14:00 8,0 C 93 % 1010,0 hPa 0,0 l/m 6,8 km/h (2 Bft) O-NO 6,9 C 7,4 C 16,6 km/h (3 Bft)
14.09.2017 15:00 8,8 C 90 % 1010,5 hPa 0,5 l/m 8,0 km/h (2 Bft) N-NO 7,3 C 7,6 C 22,3 km/h (4 Bft)
14.09.2017 16:00 9,2 C 89 % 1011,2 hPa 0,3 l/m 8,5 km/h (2 Bft) O-NO 7,5 C 7,7 C 21,2 km/h (4 Bft)
14.09.2017 17:00 9,1 C 90 % 1011,5 hPa 0,3 l/m 6,5 km/h (2 Bft) O-NO 7,5 C 8,6 C 17,6 km/h (3 Bft)
14.09.2017 18:00 8,6 C 90 % 1012,2 hPa 1,5 l/m 4,1 km/h (1 Bft) NO 7,1 C 8,5 C 12,7 km/h (3 Bft)
14.09.2017 19:00 8,4 C 91 % 1012,8 hPa 0,0 l/m 6,0 km/h (2 Bft) NO 6,9 C 8,2 C 16,4 km/h (3 Bft)
14.09.2017 20:00 8,2 C 88 % 1014,1 hPa 0,0 l/m 5,0 km/h (1 Bft) O 6,4 C 8,1 C 14,2 km/h (3 Bft)
14.09.2017 21:00 8,3 C 88 % 1014,9 hPa 0,3 l/m 4,8 km/h (1 Bft) NO 6,4 C 8,2 C 13,0 km/h (3 Bft)
14.09.2017 22:00 8,2 C 88 % 1015,7 hPa 0,0 l/m 3,3 km/h (1 Bft) O-NO 6,4 C 8,2 C 9,4 km/h (2 Bft)
14.09.2017 23:00 8,3 C 89 % 1015,9 hPa 0,0 l/m 2,6 km/h (1 Bft) O-NO 6,5 C 8,3 C 6,5 km/h (2 Bft)
15.09.2017 00:00 8,5 C 88 % 1015,9 hPa 0,0 l/m 2,7 km/h (1 Bft) O 6,6 C 8,5 C 8,1 km/h (2 Bft)
15.09.2017 01:00 8,4 C 87 % 1015,7 hPa 0,0 l/m 2,3 km/h (1 Bft) O-NO 6,4 C 8,4 C 7,5 km/h (2 Bft)
15.09.2017 02:00 8,1 C 90 % 1015,8 hPa 0,0 l/m 2,2 km/h (1 Bft) NO 6,5 C 8,1 C 7,5 km/h (2 Bft)
15.09.2017 03:00 7,6 C 91 % 1015,7 hPa 0,0 l/m 0,4 km/h (0 Bft) O-NO 6,3 C 7,6 C 1,9 km/h (1 Bft)
15.09.2017 04:00 7,2 C 94 % 1015,5 hPa 0,0 l/m 0,0 km/h (0 Bft) O-NO 6,3 C 7,2 C 0,1 km/h (0 Bft)
15.09.2017 05:00 6,9 C 93 % 1015,3 hPa 0,0 l/m 1,0 km/h (0 Bft) O-NO 5,8 C 6,9 C 4,9 km/h (1 Bft)
15.09.2017 06:00 6,2 C 93 % 1015,0 hPa 0,0 l/m 0,1 km/h (0 Bft) O-NO 5,2 C 6,2 C 0,9 km/h (0 Bft)
15.09.2017 07:00 5,5 C 95 % 1014,8 hPa 0,0 l/m 0,1 km/h (0 Bft) NO 4,8 C 5,5 C 1,3 km/h (1 Bft)
15.09.2017 08:00 7,7 C 92 % 1014,7 hPa 0,0 l/m 0,2 km/h (0 Bft) NO 6,4 C 7,7 C 1,6 km/h (1 Bft)
15.09.2017 09:00 10,2 C 84 % 1014,6 hPa 0,0 l/m 1,0 km/h (0 Bft) NO 7,5 C 10,2 C 3,9 km/h (1 Bft)
15.09.2017 10:00 12,2 C 75 % 1014,5 hPa 0,0 l/m 2,1 km/h (1 Bft) NO 7,8 C 12,2 C 6,0 km/h (2 Bft)
15.09.2017 11:00 13,4 C 68 % 1014,3 hPa 0,0 l/m 4,4 km/h (1 Bft) O-NO 7,6 C 13,3 C 9,7 km/h (2 Bft)
15.09.2017 12:00 14,3 C 64 % 1014,1 hPa 0,0 l/m 4,7 km/h (1 Bft) O-NO 7,5 C 14,3 C 10,8 km/h (2 Bft)
15.09.2017 13:00 15,0 C 60 % 1013,6 hPa 0,0 l/m 4,6 km/h (1 Bft) O-NO 7,3 C 15,0 C 12,2 km/h (2 Bft)
15.09.2017 14:00 15,8 C 55 % 1012,9 hPa 0,0 l/m 4,2 km/h (1 Bft) O-NO 6,6 C 15,8 C 11,7 km/h (2 Bft)
15.09.2017 15:00 16,6 C 49 % 1012,2 hPa 0,0 l/m 4,4 km/h (1 Bft) NO 5,8 C 16,6 C 12,1 km/h (2 Bft)
15.09.2017 16:00 16,4 C 50 % 1011,7 hPa 0,0 l/m 3,9 km/h (1 Bft) O 6,0 C 16,4 C 11,0 km/h (2 Bft)
15.09.2017 17:00 16,1 C 54 % 1011,2 hPa 0,0 l/m 2,2 km/h (1 Bft) O 6,8 C 16,1 C 7,2 km/h (2 Bft)
15.09.2017 18:00 14,8 C 57 % 1011,2 hPa 0,0 l/m 2,3 km/h (1 Bft) O 6,2 C 14,8 C 5,9 km/h (2 Bft)
15.09.2017 19:00 12,0 C 73 % 1011,6 hPa 0,0 l/m 0,1 km/h (0 Bft) SO 7,2 C 12,0 C 0,9 km/h (0 Bft)
15.09.2017 20:00 9,1 C 84 % 1012,2 hPa 0,0 l/m 0,0 km/h (0 Bft) SO 6,4 C 9,1 C 0,3 km/h (0 Bft)
15.09.2017 21:00 7,6 C 90 % 1012,3 hPa 0,0 l/m 0,0 km/h (0 Bft) SO 6,0 C 7,6 C 0,0 km/h (0 Bft)
15.09.2017 22:00 7,1 C 92 % 1012,4 hPa 0,0 l/m 0,0 km/h (0 Bft) SO 5,9 C 7,1 C 0,0 km/h (0 Bft)
15.09.2017 23:00 6,1 C 93 % 1012,4 hPa 0,0 l/m 0,0 km/h (0 Bft) SO 5,1 C 6,1 C 0,0 km/h (0 Bft)
16.09.2017 00:00 5,2 C 93 % 1012,2 hPa 0,0 l/m 0,0 km/h (0 Bft) SO 4,2 C 5,2 C 0,0 km/h (0 Bft)
16.09.2017 01:00 3,8 C 94 % 1012,0 hPa 0,0 l/m 0,0 km/h (0 Bft) SO 3,0 C 3,8 C 0,0 km/h (0 Bft)
16.09.2017 02:00 3,2 C 95 % 1012,1 hPa 0,0 l/m 0,0 km/h (0 Bft) SO 2,5 C 3,2 C 0,0 km/h (0 Bft)
16.09.2017 03:00 2,6 C 95 % 1011,7 hPa 0,0 l/m 0,0 km/h (0 Bft) SO 1,9 C 2,6 C 0,0 km/h (0 Bft)
16.09.2017 04:00 2,2 C 96 % 1011,4 hPa 0,0 l/m 0,0 km/h (0 Bft) SO 1,6 C 2,2 C 0,0 km/h (0 Bft)
16.09.2017 05:00 2,5 C 97 % 1011,3 hPa 0,0 l/m 0,0 km/h (0 Bft) SO 2,0 C 2,5 C 0,0 km/h (0 Bft)
16.09.2017 06:00 2,7 C 97 % 1011,1 hPa 0,0 l/m 0,0 km/h (0 Bft) SO 2,2 C 2,7 C 0,0 km/h (0 Bft)
16.09.2017 07:00 2,5 C 97 % 1011,3 hPa 0,0 l/m 0,0 km/h (0 Bft) SO 2,0 C 2,5 C 0,0 km/h (0 Bft)
16.09.2017 08:00 3,8 C 97 % 1011,6 hPa 0,0 l/m 0,0 km/h (0 Bft) SO 3,4 C 3,8 C 0,0 km/h (0 Bft)
16.09.2017 09:00 5,3 C 97 % 1012,1 hPa 0,0 l/m 0,0 km/h (0 Bft) SO 4,9 C 5,3 C 0,0 km/h (0 Bft)
16.09.2017 10:00 7,4 C 96 % 1012,2 hPa 0,0 l/m 0,0 km/h (0 Bft) SO 6,8 C 7,4 C 0,0 km/h (0 Bft)
16.09.2017 11:00 11,3 C 75 % 1011,9 hPa 0,0 l/m 0,0 km/h (0 Bft) N 7,0 C 11,3 C 0,0 km/h (0 Bft)
16.09.2017 12:00 13,6 C 64 % 1011,6 hPa 0,0 l/m 0,9 km/h (0 Bft) N 6,9 C 13,6 C 2,3 km/h (1 Bft)
16.09.2017 13:00 15,3 C 56 % 1011,3 hPa 0,0 l/m 2,3 km/h (1 Bft) O-NO 6,4 C 15,3 C 6,3 km/h (2 Bft)
16.09.2017 14:00 12,3 C 69 % 1011,5 hPa 0,0 l/m 4,9 km/h (1 Bft) NO 6,7 C 12,2 C 13,2 km/h (3 Bft)
16.09.2017 15:00 13,0 C 65 % 1011,3 hPa 0,0 l/m 2,4 km/h (1 Bft) SW 6,5 C 13,0 C 7,1 km/h (2 Bft)
16.09.2017 16:00 11,5 C 76 % 1011,8 hPa 0,8 l/m 0,7 km/h (0 Bft) N-NO 7,5 C 11,5 C 3,6 km/h (1 Bft)
16.09.2017 17:00 9,0 C 89 % 1012,7 hPa 1,0 l/m 2,4 km/h (1 Bft) O 7,4 C 9,0 C 7,8 km/h (2 Bft)
16.09.2017 18:00 7,9 C 93 % 1012,7 hPa 1,0 l/m 0,3 km/h (0 Bft) O-NO 6,8 C 7,9 C 1,9 km/h (1 Bft)
16.09.2017 19:00 7,6 C 94 % 1013,0 hPa 0,0 l/m 0,1 km/h (0 Bft) O-NO 6,7 C 7,6 C 0,8 km/h (0 Bft)
16.09.2017 20:00 7,1 C 95 % 1013,6 hPa 0,0 l/m 0,1 km/h (0 Bft) O-NO 6,3 C 7,1 C 0,4 km/h (0 Bft)
16.09.2017 21:00 6,9 C 96 % 1014,0 hPa 0,0 l/m 0,0 km/h (0 Bft) O-NO 6,2 C 6,9 C 0,5 km/h (0 Bft)
16.09.2017 22:00 6,9 C 96 % 1014,1 hPa 0,0 l/m 0,0 km/h (0 Bft) O-NO 6,3 C 6,9 C 0,5 km/h (0 Bft)
16.09.2017 23:00 6,7 C 96 % 1014,1 hPa 0,0 l/m 0,1 km/h (0 Bft) O-NO 6,1 C 6,7 C 0,8 km/h (0 Bft)
17.09.2017 00:00 6,4 C 96 % 1013,9 hPa 0,0 l/m 0,1 km/h (0 Bft) O-NO 5,8 C 6,4 C 0,5 km/h (0 Bft)
17.09.2017 01:00 6,2 C 97 % 1013,6 hPa 0,0 l/m 0,2 km/h (0 Bft) O 5,8 C 6,2 C 1,3 km/h (1 Bft)
17.09.2017 02:00 6,0 C 97 % 1013,5 hPa 0,0 l/m 0,2 km/h (0 Bft) N-NO 5,6 C 6,0 C 1,2 km/h (1 Bft)
17.09.2017 03:00 5,8 C 97 % 1013,4 hPa 0,0 l/m 0,3 km/h (0 Bft) N-NO 5,4 C 5,8 C 1,9 km/h (1 Bft)
17.09.2017 04:00 5,5 C 97 % 1013,3 hPa 0,0 l/m 0,4 km/h (0 Bft) N-NO 5,1 C 5,5 C 1,7 km/h (1 Bft)
17.09.2017 05:00 5,1 C 97 % 1013,2 hPa 0,3 l/m 0,2 km/h (0 Bft) O 4,6 C 5,1 C 1,6 km/h (1 Bft)
17.09.2017 06:00 4,5 C 97 % 1013,3 hPa 0,0 l/m 0,0 km/h (0 Bft) O 4,0 C 4,5 C 0,5 km/h (0 Bft)
17.09.2017 07:00 4,4 C 97 % 1013,7 hPa 0,0 l/m 0,1 km/h (0 Bft) O 4,0 C 4,4 C 0,7 km/h (0 Bft)
17.09.2017 08:00 4,8 C 98 % 1014,3 hPa 0,0 l/m 0,1 km/h (0 Bft) O-NO 4,4 C 4,8 C 1,2 km/h (1 Bft)
17.09.2017 09:00 6,0 C 98 % 1014,5 hPa 0,0 l/m 0,0 km/h (0 Bft) N 5,7 C 6,0 C 0,4 km/h (0 Bft)
17.09.2017 10:00 7,9 C 97 % 1014,5 hPa 0,0 l/m 0,2 km/h (0 Bft) O-SO 7,5 C 7,9 C 1,9 km/h (1 Bft)
17.09.2017 11:00 10,7 C 86 % 1014,1 hPa 0,0 l/m 1,8 km/h (1 Bft) O-NO 8,4 C 10,7 C 4,6 km/h (1 Bft)
17.09.2017 12:00 12,2 C 79 % 1013,8 hPa 0,0 l/m 3,0 km/h (1 Bft) NO 8,6 C 12,2 C 6,6 km/h (2 Bft)
17.09.2017 13:00 13,0 C 73 % 1013,4 hPa 0,0 l/m 4,2 km/h (1 Bft) O-NO 8,2 C 13,0 C 10,2 km/h (2 Bft)
17.09.2017 14:00 14,0 C 65 % 1013,0 hPa 0,0 l/m 4,6 km/h (1 Bft) O-NO 7,4 C 14,0 C 12,2 km/h (2 Bft)
17.09.2017 15:00 14,7 C 61 % 1012,8 hPa 0,0 l/m 4,7 km/h (1 Bft) O-NO 7,2 C 14,7 C 11,5 km/h (2 Bft)
17.09.2017 16:00 13,6 C 67 % 1012,7 hPa 0,0 l/m 2,8 km/h (1 Bft) O 7,6 C 13,6 C 7,9 km/h (2 Bft)
17.09.2017 17:00 12,1 C 71 % 1012,8 hPa 0,0 l/m 2,6 km/h (1 Bft) NO 7,0 C 12,1 C 7,2 km/h (2 Bft)
17.09.2017 18:00 9,8 C 84 % 1013,3 hPa 3,0 l/m 1,0 km/h (0 Bft) SW 7,1 C 9,8 C 3,7 km/h (1 Bft)
17.09.2017 19:00 8,3 C 93 % 1013,3 hPa 0,0 l/m 0,3 km/h (0 Bft) SW 7,2 C 8,3 C 1,3 km/h (1 Bft)
17.09.2017 20:00 7,1 C 94 % 1013,8 hPa 0,0 l/m 0,0 km/h (0 Bft) SW 6,3 C 7,1 C 0,3 km/h (0 Bft)
17.09.2017 21:00 6,8 C 96 % 1014,2 hPa 0,3 l/m 0,0 km/h (0 Bft) SW 6,1 C 6,8 C 0,3 km/h (0 Bft)
17.09.2017 22:00 7,3 C 96 % 1014,7 hPa 4,8 l/m 1,7 km/h (1 Bft) O 6,8 C 7,3 C 5,5 km/h (2 Bft)
17.09.2017 23:00 7,2 C 96 % 1015,0 hPa 2,0 l/m 1,7 km/h (1 Bft) O-NO 6,6 C 7,2 C 4,6 km/h (1 Bft)
Min-Datum _ 16.09.17 15.09.17 14.09.17 - 17.09.17 - 16.09.17 16.09.17 17.09.17
_ Min-Zeit 04:15 15:55 07:08 - 23:57 - 04:05 04:15 22:00
Minimum _ 2,1 C 45 % 1001,3 hPa - 0,0 km/h (0 Bft) - 1,5 C 2,1 C 0,0 km/h (0 Bft)
Max-Datum _ 13.09.17 17.09.17 15.09.17 17.09.17 14.09.17 - 13.09.17 14.09.17 14.09.17
_ Max-Zeit 23:15 10:00 00:00 22:05 02:20 - 19:25 03:21 06:56
Maximum _ 18,9 C 98 % 1016,0 hPa 4,8 l/m 27,4 km/h
O-NO (5 Bft)
- 14,1 C 18,3 C 57,9 km/h
O-NO (7 Bft)
Durchschnitt _ 10,1 C 86 % 1010,4 hPa #56,1 l/m 3,9 km/h (1 Bft) O-NO 7,7 C 9,6 C 9,6 km/h (2 Bft)